createdAt,value
2018-10-19T00:00:36.549Z,76.90
2018-10-19T00:03:11.426Z,76.90
2018-10-19T00:05:46.299Z,77.10
2018-10-19T00:08:21.024Z,76.90
2018-10-19T00:10:55.800Z,77.10
2018-10-19T00:13:31.387Z,77.80
2018-10-19T00:16:06.219Z,77.60
2018-10-19T00:18:41.000Z,78.00
2018-10-19T00:21:16.094Z,77.50
2018-10-19T00:23:50.655Z,76.70
2018-10-19T00:26:25.547Z,77.30
2018-10-19T00:29:00.048Z,79.10
2018-10-19T00:31:34.910Z,78.60
2018-10-19T00:34:09.697Z,78.60
2018-10-19T00:36:44.559Z,79.20
2018-10-19T00:39:19.415Z,80.00
2018-10-19T00:41:54.306Z,79.80
2018-10-19T00:44:29.073Z,79.10
2018-10-19T00:47:03.733Z,78.90
2018-10-19T00:49:38.634Z,78.30
2018-10-19T00:52:13.473Z,77.90
2018-10-19T00:54:48.212Z,78.00
2018-10-19T00:57:23.131Z,78.40
2018-10-19T00:59:58.209Z,79.10
2018-10-19T01:02:32.926Z,79.00
2018-10-19T01:05:07.631Z,78.70
2018-10-19T01:07:42.445Z,78.50
2018-10-19T01:10:21.661Z,77.10
2018-10-19T01:12:57.843Z,77.60
2018-10-19T01:15:32.595Z,77.50
2018-10-19T01:18:07.286Z,78.10
2018-10-19T01:20:42.026Z,78.90
2018-10-19T01:23:17.007Z,79.70
2018-10-19T01:25:51.987Z,80.50
2018-10-19T01:28:26.820Z,80.00
2018-10-19T01:31:01.562Z,80.00
2018-10-19T01:33:36.534Z,80.00
2018-10-19T01:36:11.222Z,80.00
2018-10-19T01:38:45.888Z,79.80
2018-10-19T01:41:20.658Z,79.70
2018-10-19T01:43:55.716Z,79.70
2018-10-19T01:46:30.839Z,79.90
2018-10-19T01:49:05.866Z,80.60
2018-10-19T01:51:40.590Z,78.50
2018-10-19T01:54:15.625Z,78.80
2018-10-19T01:56:50.350Z,79.40
2018-10-19T01:59:25.397Z,79.70
2018-10-19T02:02:00.218Z,80.00
2018-10-19T02:04:35.765Z,80.40
2018-10-19T02:07:10.609Z,80.30
2018-10-19T02:09:45.496Z,79.40
2018-10-19T02:12:20.391Z,79.20
2018-10-19T02:14:55.101Z,80.00
2018-10-19T02:17:30.031Z,80.10
2018-10-19T02:20:04.854Z,80.30
2018-10-19T02:22:39.646Z,80.70
2018-10-19T02:25:14.542Z,80.70
2018-10-19T02:27:49.338Z,80.50
2018-10-19T02:30:24.127Z,80.30
2018-10-19T02:32:59.111Z,80.20
2018-10-19T02:35:34.090Z,79.90
2018-10-19T02:38:08.821Z,81.20
2018-10-19T02:40:43.496Z,80.60
2018-10-19T02:43:18.186Z,80.60
2018-10-19T02:45:52.851Z,80.80
2018-10-19T02:48:27.807Z,80.30
2018-10-19T02:51:02.635Z,81.00
2018-10-19T02:53:37.565Z,81.50
2018-10-19T02:56:12.747Z,81.10
2018-10-19T02:58:47.475Z,80.70
2018-10-19T03:01:22.861Z,80.10
2018-10-19T03:03:57.607Z,81.30
2018-10-19T03:06:32.321Z,80.60
2018-10-19T03:09:09.802Z,82.00
2018-10-19T03:11:44.771Z,81.90
2018-10-19T03:14:20.372Z,81.50
2018-10-19T03:16:55.016Z,81.50
2018-10-19T03:19:29.913Z,81.70
2018-10-19T03:22:05.295Z,82.30
2018-10-19T03:24:40.086Z,81.70
2018-10-19T03:27:15.273Z,82.20
2018-10-19T03:29:50.338Z,82.70
2018-10-19T03:32:25.133Z,82.80
2018-10-19T03:35:00.094Z,82.50
2018-10-19T03:37:35.206Z,82.50
2018-10-19T03:40:10.006Z,82.20
2018-10-19T03:42:44.835Z,83.30
2018-10-19T03:45:20.213Z,82.90
2018-10-19T03:47:55.004Z,82.60
2018-10-19T03:50:29.769Z,81.70
2018-10-19T03:53:04.896Z,81.20
2018-10-19T03:55:39.937Z,81.90
2018-10-19T03:58:14.571Z,82.30
2018-10-19T04:00:49.202Z,82.10
2018-10-19T04:03:24.187Z,81.90
2018-10-19T04:05:59.130Z,81.60
2018-10-19T04:08:34.058Z,81.60
2018-10-19T04:11:08.985Z,81.60
2018-10-19T04:13:44.197Z,82.90
2018-10-19T04:16:19.110Z,83.10
2018-10-19T04:18:54.049Z,83.40
2018-10-19T04:21:28.805Z,83.20
2018-10-19T04:24:04.014Z,83.50
2018-10-19T04:26:38.702Z,83.30
2018-10-19T04:29:13.886Z,83.60
2018-10-19T04:31:48.713Z,84.20
2018-10-19T04:34:23.433Z,84.60
2018-10-19T04:37:02.874Z,84.20
2018-10-19T04:39:37.798Z,84.10
2018-10-19T04:42:13.471Z,84.00
2018-10-19T04:44:48.449Z,84.00
2018-10-19T04:47:23.305Z,83.90
2018-10-19T04:49:58.075Z,83.90
2018-10-19T04:52:32.872Z,84.20
2018-10-19T04:55:10.104Z,84.10
2018-10-19T04:57:44.854Z,84.10
2018-10-19T05:00:20.720Z,84.10
2018-10-19T05:02:55.355Z,84.20
2018-10-19T05:05:30.303Z,84.60
2018-10-19T05:08:05.210Z,84.70
2018-10-19T05:10:40.114Z,84.90
2018-10-19T05:13:14.815Z,85.50
2018-10-19T05:15:49.627Z,86.30
2018-10-19T05:18:24.301Z,86.20
2018-10-19T05:20:59.126Z,86.20
2018-10-19T05:23:33.857Z,86.40
2018-10-19T05:26:08.775Z,86.20
2018-10-19T05:28:43.522Z,86.70
2018-10-19T05:31:18.550Z,88.10
2018-10-19T05:33:55.332Z,88.40
2018-10-19T05:36:30.250Z,88.40
2018-10-19T05:39:07.836Z,88.40
2018-10-19T05:41:42.509Z,88.40
2018-10-19T05:44:17.255Z,88.30
2018-10-19T05:46:52.453Z,88.30
2018-10-19T05:49:27.365Z,88.40
2018-10-19T05:52:02.223Z,88.40
2018-10-19T05:54:37.060Z,89.00
2018-10-19T05:57:11.846Z,89.30
2018-10-19T05:59:46.619Z,89.60
2018-10-19T06:02:22.082Z,89.50
2018-10-19T06:04:56.880Z,90.10
2018-10-19T06:07:31.897Z,90.10
2018-10-19T06:10:07.638Z,90.10
2018-10-19T06:12:42.377Z,90.10
2018-10-19T06:15:17.192Z,90.20
2018-10-19T06:17:51.933Z,90.00
2018-10-19T06:20:26.602Z,89.70
2018-10-19T06:23:01.591Z,89.80
2018-10-19T06:25:37.386Z,90.30
2018-10-19T06:28:12.369Z,90.80
2018-10-19T06:30:47.008Z,90.90
2018-10-19T06:33:22.016Z,91.40
2018-10-19T06:35:56.972Z,91.90
2018-10-19T06:38:31.768Z,92.00
2018-10-19T06:41:06.724Z,92.40
2018-10-19T06:43:41.628Z,92.60
2018-10-19T06:46:16.302Z,93.10
2018-10-19T06:48:51.142Z,92.90
2018-10-19T06:51:26.438Z,93.10
2018-10-19T06:54:01.101Z,92.80
2018-10-19T06:56:36.023Z,92.70
2018-10-19T06:59:11.007Z,93.10
2018-10-19T07:01:45.797Z,93.50
2018-10-19T07:04:20.650Z,93.50
2018-10-19T07:06:55.530Z,94.10
2018-10-19T07:09:30.387Z,94.40
2018-10-19T07:12:06.493Z,94.70
2018-10-19T07:14:41.271Z,95.10
2018-10-19T07:17:16.076Z,95.40
2018-10-19T07:19:50.865Z,95.90
2018-10-19T07:22:25.962Z,95.70
2018-10-19T07:25:00.571Z,95.80
2018-10-19T07:27:35.348Z,95.90
2018-10-19T07:30:10.288Z,96.00
2018-10-19T07:32:45.343Z,95.50
2018-10-19T07:35:20.214Z,95.50
2018-10-19T07:37:55.072Z,95.90
2018-10-19T07:40:30.437Z,95.50
2018-10-19T07:43:05.837Z,95.30
2018-10-19T07:45:41.606Z,95.40
2018-10-19T07:48:16.458Z,95.30
2018-10-19T07:50:51.430Z,95.10
2018-10-19T07:53:26.070Z,95.60
2018-10-19T07:56:00.945Z,95.50
2018-10-19T07:58:35.951Z,95.30
2018-10-19T08:01:10.849Z,95.10
2018-10-19T08:03:46.706Z,95.40
2018-10-19T08:06:21.440Z,95.80
2018-10-19T08:08:56.268Z,95.90
2018-10-19T08:11:31.385Z,95.90
2018-10-19T08:14:06.552Z,95.70
2018-10-19T08:16:41.573Z,95.50
2018-10-19T08:19:16.497Z,95.60
2018-10-19T08:21:51.555Z,95.20
2018-10-19T08:24:26.371Z,94.50
2018-10-19T08:27:01.228Z,94.90
2018-10-19T08:29:35.914Z,94.90
2018-10-19T08:32:10.727Z,94.40
2018-10-19T08:34:45.694Z,94.00
2018-10-19T08:37:20.519Z,94.50
2018-10-19T08:39:55.558Z,94.00
2018-10-19T08:42:30.450Z,94.40
2018-10-19T08:45:06.315Z,94.10
2018-10-19T08:47:41.888Z,93.90
2018-10-19T08:50:16.917Z,93.60
2018-10-19T08:52:51.643Z,93.40
2018-10-19T08:55:26.390Z,93.40
2018-10-19T08:58:01.555Z,93.00
2018-10-19T09:00:36.745Z,93.00
2018-10-19T09:03:11.507Z,93.10
2018-10-19T09:05:46.412Z,92.90
2018-10-19T09:08:21.321Z,92.90
2018-10-19T09:10:56.158Z,92.70
2018-10-19T09:13:31.113Z,92.60
2018-10-19T09:16:06.247Z,92.70
2018-10-19T09:18:41.111Z,92.50
2018-10-19T09:21:16.449Z,92.50
2018-10-19T09:23:51.273Z,92.80
2018-10-19T09:26:25.880Z,92.60
2018-10-19T09:29:00.661Z,92.90
2018-10-19T09:31:35.639Z,92.70
2018-10-19T09:34:10.590Z,92.40
2018-10-19T09:36:45.482Z,92.50
2018-10-19T09:39:20.872Z,92.00
2018-10-19T09:41:55.812Z,91.70
2018-10-19T09:44:30.680Z,91.80
2018-10-19T09:47:06.341Z,91.80
2018-10-19T09:49:41.559Z,92.00
2018-10-19T09:52:16.270Z,91.90
2018-10-19T09:54:50.998Z,91.90
2018-10-19T09:57:25.890Z,92.00
2018-10-19T10:00:00.626Z,91.80
2018-10-19T10:02:35.445Z,91.70
2018-10-19T10:05:10.376Z,91.90
2018-10-19T10:07:45.328Z,92.00
2018-10-19T10:10:20.256Z,91.90
2018-10-19T10:12:55.043Z,91.60
2018-10-19T10:15:30.214Z,91.60
2018-10-19T10:18:05.565Z,91.70
2018-10-19T10:20:40.277Z,91.80
2018-10-19T10:23:15.062Z,91.40
2018-10-19T10:25:50.047Z,91.30
2018-10-19T10:28:24.874Z,91.10
2018-10-19T10:31:00.036Z,90.80
2018-10-19T10:33:34.954Z,90.90
2018-10-19T10:36:09.785Z,90.50
2018-10-19T10:38:44.948Z,90.40
2018-10-19T10:41:19.874Z,90.20
2018-10-19T10:43:54.874Z,89.70
2018-10-19T10:46:29.631Z,88.90
2018-10-19T10:49:04.374Z,88.40
2018-10-19T10:51:39.387Z,88.80
2018-10-19T10:54:14.395Z,88.50
2018-10-19T10:56:49.273Z,88.10
2018-10-19T10:59:23.985Z,88.30
2018-10-19T11:01:58.691Z,89.00
2018-10-19T11:04:33.510Z,88.40
2018-10-19T11:07:08.264Z,88.10
2018-10-19T11:09:43.243Z,87.40
2018-10-19T11:12:18.111Z,86.10
2018-10-19T11:14:52.955Z,86.30
2018-10-19T11:17:27.769Z,85.10
2018-10-19T11:20:02.899Z,84.40
2018-10-19T11:22:38.341Z,83.30
2018-10-19T11:25:13.709Z,81.30
2018-10-19T11:27:49.648Z,78.80
2018-10-19T11:30:25.016Z,74.70
2018-10-19T11:33:00.607Z,74.60
2018-10-19T11:35:35.887Z,73.50
2018-10-19T11:38:11.235Z,72.10
2018-10-19T11:40:46.539Z,69.30
2018-10-19T11:43:21.801Z,67.00
2018-10-19T11:45:57.291Z,64.40
2018-10-19T11:48:32.777Z,61.10
2018-10-19T11:51:08.454Z,61.10
2018-10-19T11:53:43.848Z,60.00
2018-10-19T11:56:19.282Z,59.10
2018-10-19T11:58:54.576Z,57.80
2018-10-19T12:01:29.770Z,56.40
2018-10-19T12:04:05.520Z,55.80
2018-10-19T12:06:40.953Z,55.50
2018-10-19T12:09:16.476Z,56.40
2018-10-19T12:11:52.287Z,56.00
2018-10-19T12:14:27.674Z,57.80
2018-10-19T12:17:03.008Z,57.20
2018-10-19T12:19:38.511Z,58.00
2018-10-19T12:22:13.813Z,57.40
2018-10-19T12:24:50.188Z,56.30
2018-10-19T12:27:25.582Z,56.00
2018-10-19T12:30:01.026Z,56.40
2018-10-19T12:32:36.691Z,56.50
2018-10-19T12:35:13.726Z,54.90
2018-10-19T12:37:48.877Z,54.30
2018-10-19T12:40:24.216Z,52.90
2018-10-19T12:42:59.702Z,53.10
2018-10-19T12:46:46.930Z,51.50
2018-10-19T12:49:23.334Z,50.90
2018-10-19T12:51:58.806Z,52.10
2018-10-19T12:54:34.241Z,51.20
2018-10-19T12:57:09.572Z,51.20
2018-10-19T12:59:44.735Z,52.30
2018-10-19T13:02:20.287Z,51.30
2018-10-19T13:04:55.400Z,49.70
2018-10-19T13:07:30.678Z,50.70
2018-10-19T13:10:06.213Z,51.00
2018-10-19T13:12:41.425Z,51.00
2018-10-19T13:15:16.535Z,50.00
2018-10-19T13:17:51.637Z,49.20
2018-10-19T13:20:26.578Z,49.30
2018-10-19T13:23:02.177Z,48.70
2018-10-19T13:25:37.615Z,48.40
2018-10-19T13:28:13.050Z,51.20
2018-10-19T13:30:48.285Z,51.20
2018-10-19T13:33:23.841Z,50.60
2018-10-19T13:35:59.271Z,50.20
2018-10-19T13:38:34.766Z,50.40
2018-10-19T13:41:09.968Z,50.20
2018-10-19T13:43:45.699Z,49.10
2018-10-19T13:46:21.152Z,48.60
2018-10-19T13:48:56.642Z,49.70
2018-10-19T13:51:32.240Z,49.60
2018-10-19T13:54:07.392Z,49.50
2018-10-19T13:56:42.829Z,49.40
2018-10-19T13:59:17.881Z,48.50
2018-10-19T14:01:52.951Z,42.40
2018-10-19T14:04:28.232Z,44.60
2018-10-19T14:07:03.782Z,46.60
2018-10-19T14:09:38.969Z,47.80
2018-10-19T14:12:13.943Z,49.00
2018-10-19T14:14:49.022Z,48.70
2018-10-19T14:17:24.088Z,49.10
2018-10-19T14:19:59.636Z,48.20
2018-10-19T14:22:35.064Z,47.70
2018-10-19T14:25:11.849Z,48.40
2018-10-19T14:27:47.175Z,48.00
2018-10-19T14:30:22.846Z,47.50
2018-10-19T14:32:58.690Z,48.80
2018-10-19T14:35:34.248Z,48.70
2018-10-19T14:38:09.812Z,48.20
2018-10-19T14:40:45.287Z,48.50
2018-10-19T14:43:20.623Z,49.40
2018-10-19T14:45:55.867Z,49.40
2018-10-19T14:48:31.951Z,49.90
2018-10-19T14:51:07.488Z,50.00
2018-10-19T14:53:43.427Z,50.30
2018-10-19T14:56:18.898Z,50.50
2018-10-19T14:58:54.533Z,50.40
2018-10-19T15:01:30.007Z,50.70
2018-10-19T15:04:07.041Z,51.00
2018-10-19T15:06:42.754Z,51.50
2018-10-19T15:09:18.325Z,52.40
2018-10-19T15:11:53.943Z,53.70
2018-10-19T15:14:30.310Z,54.60
2018-10-19T15:17:06.458Z,55.60
2018-10-19T15:19:41.782Z,55.90
2018-10-19T15:22:17.242Z,56.80
2018-10-19T15:24:52.859Z,57.50
2018-10-19T15:27:28.230Z,58.20
2018-10-19T15:30:03.654Z,58.90
2018-10-19T15:32:39.239Z,59.10
2018-10-19T15:35:14.577Z,59.90
2018-10-19T15:37:49.927Z,60.30
2018-10-19T15:40:25.405Z,61.40
2018-10-19T15:43:00.836Z,61.80
2018-10-19T15:45:36.094Z,62.10
2018-10-19T15:48:11.889Z,61.70
2018-10-19T15:50:47.601Z,62.20
2018-10-19T15:53:22.950Z,62.40
2018-10-19T15:55:58.311Z,63.50
2018-10-19T15:58:33.953Z,64.00
2018-10-19T16:01:09.718Z,65.50
2018-10-19T16:03:45.309Z,65.70
2018-10-19T16:06:20.790Z,66.30
2018-10-19T16:08:56.054Z,66.70
2018-10-19T16:11:32.469Z,67.00
2018-10-19T16:14:07.324Z,67.60
2018-10-19T16:16:42.205Z,68.90
2018-10-19T16:19:17.141Z,70.20
2018-10-19T16:21:51.947Z,70.40
2018-10-19T16:24:26.904Z,71.20
2018-10-19T16:27:01.995Z,71.10
2018-10-19T16:29:36.957Z,72.00
2018-10-19T16:32:12.418Z,72.10
2018-10-19T16:34:47.219Z,72.10
2018-10-19T16:37:22.234Z,71.90
2018-10-19T16:39:57.079Z,72.10
2018-10-19T16:42:32.021Z,73.20
2018-10-19T16:45:08.224Z,72.60
2018-10-19T16:47:43.180Z,73.00
2018-10-19T16:50:18.156Z,73.50
2018-10-19T16:52:53.066Z,73.70
2018-10-19T16:55:28.070Z,74.00
2018-10-19T16:58:03.012Z,74.40
2018-10-19T17:00:37.798Z,74.60
2018-10-19T17:03:12.993Z,75.10
2018-10-19T17:05:48.054Z,75.50
2018-10-19T17:08:22.902Z,76.00
2018-10-19T17:10:57.683Z,76.20
2018-10-19T17:13:32.405Z,76.10
2018-10-19T17:16:07.201Z,76.80
2018-10-19T17:18:42.049Z,76.70
2018-10-19T17:21:16.988Z,76.30
2018-10-19T17:23:51.954Z,76.80
2018-10-19T17:26:26.729Z,76.20
2018-10-19T17:29:01.508Z,76.00
2018-10-19T17:31:36.607Z,76.10
2018-10-19T17:34:11.619Z,76.50
2018-10-19T17:36:46.398Z,76.70
2018-10-19T17:39:21.137Z,76.60
2018-10-19T17:41:55.881Z,76.20
2018-10-19T17:44:30.777Z,76.20
2018-10-19T17:47:05.999Z,76.40
2018-10-19T17:49:41.160Z,76.90
2018-10-19T17:52:16.470Z,76.80
2018-10-19T17:54:51.251Z,76.80
2018-10-19T17:57:26.261Z,77.10
2018-10-19T18:00:01.057Z,77.80
2018-10-19T18:02:36.034Z,76.70
2018-10-19T18:05:10.824Z,76.40
2018-10-19T18:07:45.700Z,76.20
2018-10-19T18:10:20.663Z,76.10
2018-10-19T18:12:55.297Z,76.80
2018-10-19T18:15:30.358Z,77.20
2018-10-19T18:18:05.643Z,77.50
2018-10-19T18:20:40.385Z,77.50
2018-10-19T18:23:15.379Z,77.60
2018-10-19T18:25:50.218Z,78.00
2018-10-19T18:28:24.999Z,78.20
2018-10-19T18:31:00.001Z,78.00
2018-10-19T18:33:34.864Z,78.00
2018-10-19T18:36:09.734Z,78.40
2018-10-19T18:38:44.541Z,77.90
2018-10-19T18:41:19.762Z,78.00
2018-10-19T18:43:54.858Z,78.40
2018-10-19T18:46:29.944Z,78.70
2018-10-19T18:49:04.768Z,78.20
2018-10-19T18:51:39.707Z,78.30
2018-10-19T18:54:14.472Z,78.80
2018-10-19T18:56:49.232Z,78.80
2018-10-19T18:59:23.938Z,79.30
2018-10-19T19:01:58.643Z,78.90
2018-10-19T19:04:33.809Z,78.80
2018-10-19T19:07:08.642Z,78.80
2018-10-19T19:09:47.638Z,79.00
2018-10-19T19:12:22.749Z,79.10
2018-10-19T19:14:57.523Z,79.00
2018-10-19T19:17:32.530Z,78.70
2018-10-19T19:20:13.525Z,79.00
2018-10-19T19:22:48.492Z,79.50
2018-10-19T19:25:28.672Z,79.40
2018-10-19T19:28:03.585Z,79.40
2018-10-19T19:30:38.366Z,79.60
2018-10-19T19:33:18.291Z,79.80
2018-10-19T19:35:53.018Z,79.90
2018-10-19T19:38:27.873Z,79.70
2018-10-19T19:41:07.868Z,79.60
2018-10-19T19:43:42.813Z,79.60
2018-10-19T19:46:17.746Z,79.50
2018-10-19T19:48:57.948Z,79.50
2018-10-19T19:51:32.843Z,80.10
2018-10-19T19:54:09.441Z,80.30
2018-10-19T19:56:44.583Z,80.30
2018-10-19T19:59:20.096Z,80.00
2018-10-19T20:01:54.937Z,80.50
2018-10-19T20:04:29.821Z,82.00
2018-10-19T20:07:04.974Z,81.90
2018-10-19T20:09:39.689Z,81.60
2018-10-19T20:12:14.510Z,81.30
2018-10-19T20:14:49.617Z,81.30
2018-10-19T20:17:24.456Z,82.00
2018-10-19T20:19:59.096Z,81.30
2018-10-19T20:22:33.828Z,82.60
2018-10-19T20:25:10.066Z,81.70
2018-10-19T20:27:44.830Z,81.80
2018-10-19T20:30:19.729Z,81.60
2018-10-19T20:32:54.553Z,81.60
2018-10-19T20:35:29.597Z,82.00
2018-10-19T20:38:04.324Z,82.80
2018-10-19T20:40:39.305Z,83.00
2018-10-19T20:43:14.205Z,82.50
2018-10-19T20:45:49.066Z,82.60
2018-10-19T20:48:23.892Z,83.30
2018-10-19T20:50:58.722Z,82.60
2018-10-19T20:53:33.416Z,82.30
2018-10-19T20:56:08.170Z,82.30
2018-10-19T20:58:43.263Z,83.00
2018-10-19T21:01:17.922Z,83.10
2018-10-19T21:03:52.944Z,83.30
2018-10-19T21:06:27.857Z,84.00
2018-10-19T21:09:02.683Z,82.90
2018-10-19T21:11:38.350Z,83.60
2018-10-19T21:14:13.236Z,83.10
2018-10-19T21:16:48.126Z,83.20
2018-10-19T21:19:22.994Z,83.50
2018-10-19T21:21:57.974Z,83.40
2018-10-19T21:24:33.074Z,83.90
2018-10-19T21:27:07.899Z,84.00
2018-10-19T21:29:42.928Z,83.20
2018-10-19T21:32:17.923Z,82.70
2018-10-19T21:34:53.170Z,83.20
2018-10-19T21:37:28.171Z,83.30
2018-10-19T21:40:03.410Z,82.90
2018-10-19T21:42:38.447Z,83.70
2018-10-19T21:45:13.298Z,83.80
2018-10-19T21:47:48.134Z,83.80
2018-10-19T21:50:23.678Z,84.30
2018-10-19T21:52:58.509Z,84.60
2018-10-19T21:55:33.388Z,84.20
2018-10-19T21:58:08.325Z,84.20
2018-10-19T22:00:43.299Z,84.00
2018-10-19T22:03:18.017Z,83.70
2018-10-19T22:05:52.765Z,83.70
2018-10-19T22:08:27.446Z,83.80
2018-10-19T22:11:02.404Z,83.50
2018-10-19T22:13:37.385Z,84.20
2018-10-19T22:16:12.223Z,84.30
2018-10-19T22:18:46.922Z,83.70
2018-10-19T22:21:21.737Z,84.00
2018-10-19T22:23:56.466Z,85.10
2018-10-19T22:26:31.591Z,85.00
2018-10-19T22:29:06.281Z,84.40
2018-10-19T22:31:41.385Z,84.90
2018-10-19T22:34:16.410Z,85.10
2018-10-19T22:36:51.186Z,84.70
2018-10-19T22:39:25.773Z,84.70
2018-10-19T22:42:00.692Z,84.80
2018-10-19T22:44:35.762Z,84.80
2018-10-19T22:47:10.554Z,86.00
2018-10-19T22:49:45.727Z,86.50
2018-10-19T22:52:20.527Z,86.60
2018-10-19T22:54:55.484Z,86.80
2018-10-19T22:57:30.486Z,86.80
2018-10-19T23:00:06.229Z,86.70
2018-10-19T23:02:41.276Z,86.10
2018-10-19T23:05:16.308Z,86.20
2018-10-19T23:07:51.122Z,86.90
2018-10-19T23:10:25.788Z,87.60
2018-10-19T23:13:00.543Z,87.90
2018-10-19T23:15:35.242Z,87.00
2018-10-19T23:18:09.950Z,85.40
2018-10-19T23:20:44.991Z,85.50
2018-10-19T23:23:19.719Z,85.70
2018-10-19T23:25:54.541Z,87.00
2018-10-19T23:28:29.277Z,87.20
2018-10-19T23:31:04.125Z,86.30
2018-10-19T23:33:38.849Z,85.30
2018-10-19T23:36:13.717Z,86.80
2018-10-19T23:38:48.601Z,86.70
2018-10-19T23:41:23.275Z,86.60
2018-10-19T23:43:57.905Z,86.30
2018-10-19T23:46:34.556Z,86.40
2018-10-19T23:49:09.875Z,86.20
2018-10-19T23:51:44.782Z,87.50
2018-10-19T23:54:19.610Z,88.00
2018-10-19T23:56:54.501Z,88.20
2018-10-19T23:59:29.306Z,87.80
